Time;durP1;ratioP1;P1;durP2;ratioP2;P2;SDS_P1;SDS_P2;PMS_P1;PMS_P2;Temp;Humidity;BMP_temperature;BMP_pressure;BME280_temperature;BME280_humidity;BME280_pressure;Samples;Min_cycle;Max_cycle;Signal;HPM_P1;HPM_P2
2023/04/04 00:02:20;;;;;;;17.13;7.43;;;1.70;1.00;;;;;;8360346;28;20259;-79
2023/04/04 00:06:21;;;;;;;10.63;5.03;;;1.70;1.00;;;;;;8352205;28;20259;-78
2023/04/04 00:10:26;;;;;;;20.73;8.83;;;1.70;1.00;;;;;;8360008;28;20211;-78
2023/04/04 00:14:27;;;;;;;25.70;13.70;;;1.70;1.00;;;;;;8367671;28;20224;-78
2023/04/04 00:18:27;;;;;;;28.40;13.40;;;1.70;1.00;;;;;;8355030;28;20197;-79
2023/04/04 00:22:31;;;;;;;65.93;27.70;;;1.70;1.00;;;;;;8358761;28;20271;-78
2023/04/04 00:26:32;;;;;;;58.87;27.13;;;1.70;1.00;;;;;;8371953;28;20192;-78
2023/04/04 00:30:34;;;;;;;26.10;13.30;;;1.70;1.00;;;;;;8374519;28;20225;-78
2023/04/04 00:34:42;;;;;;;28.83;13.23;;;1.70;1.00;;;;;;8362187;28;20185;-78
2023/04/04 00:38:43;;;;;;;12.03;6.30;;;1.70;1.00;;;;;;8373434;28;20199;-77
2023/04/04 00:42:45;;;;;;;8.00;4.93;;;1.60;1.00;;;;;;8355013;28;20212;-78
2023/04/04 00:46:46;;;;;;;8.80;4.63;;;1.60;5.80;;;;;;8369967;28;20185;-78
2023/04/04 00:50:47;;;;;;;7.40;3.90;;;1.60;10.70;;;;;;8355854;28;20212;-78
2023/04/04 00:54:48;;;;;;;10.60;4.10;;;1.60;15.60;;;;;;8364869;28;20193;-78
2023/04/04 00:58:55;;;;;;;7.60;3.97;;;1.50;18.90;;;;;;8355370;28;20255;-78
2023/04/04 01:02:56;;;;;;;8.13;3.97;;;1.50;35.80;;;;;;8355105;28;20181;-78
2023/04/04 01:07:03;;;;;;;11.37;5.40;;;1.40;14.20;;;;;;8345860;28;20198;-79
2023/04/04 01:11:05;;;;;;;9.47;5.20;;;1.30;9.90;;;;;;8348317;28;20252;-78
2023/04/04 01:15:06;;;;;;;9.10;5.33;;;1.30;5.20;;;;;;8356251;28;20193;-78
2023/04/04 01:19:13;;;;;;;8.30;4.63;;;1.30;1.80;;;;;;8355163;28;20196;-78
2023/04/04 01:23:15;;;;;;;6.77;3.40;;;1.20;20.20;;;;;;8355570;28;20220;-77
2023/04/04 01:27:16;;;;;;;13.47;7.60;;;1.10;35.00;;;;;;8355290;28;20201;-78
2023/04/04 01:31:35;;;;;;;12.30;6.93;;;1.10;38.80;;;;;;8365264;28;20343;-78
2023/04/04 01:35:43;;;;;;;11.30;6.97;;;1.10;51.60;;;;;;8379059;28;20184;-78
2023/04/04 01:39:48;;;;;;;9.57;5.37;;;1.00;65.40;;;;;;8361658;28;20193;-77
2023/04/04 01:44:08;;;;;;;7.03;5.10;;;1.10;82.90;;;;;;8352822;28;20219;-78
2023/04/04 01:48:09;;;;;;;7.97;3.73;;;1.00;93.40;;;;;;8380492;28;20268;-77
2023/04/04 01:52:14;;;;;;;6.33;3.30;;;0.90;99.90;;;;;;8363584;28;20200;-77
2023/04/04 01:56:18;;;;;;;6.07;3.90;;;0.90;99.90;;;;;;8367228;28;20205;-77
2023/04/04 02:00:19;;;;;;;6.57;3.67;;;0.70;99.90;;;;;;8362061;28;20213;-78
2023/04/04 02:04:20;;;;;;;6.10;3.27;;;0.60;99.90;;;;;;8355917;28;20201;-78
2023/04/04 02:08:24;;;;;;;7.23;3.00;;;0.50;99.90;;;;;;8375778;28;20224;-78
2023/04/04 02:12:28;;;;;;;8.03;3.70;;;0.50;99.90;;;;;;8363004;28;20189;-77
2023/04/04 02:16:32;;;;;;;7.23;3.00;;;0.50;99.90;;;;;;8378421;28;20205;-78
2023/04/04 02:20:34;;;;;;;7.27;3.00;;;0.50;99.90;;;;;;8390680;28;20185;-77
2023/04/04 02:24:35;;;;;;;11.47;4.23;;;0.50;99.90;;;;;;8391981;28;20219;-77
2023/04/04 02:28:35;;;;;;;6.40;3.47;;;0.50;99.90;;;;;;8409010;28;20224;-77
2023/04/04 02:32:37;;;;;;;5.60;3.30;;;0.50;99.90;;;;;;8399884;28;20188;-76
2023/04/04 02:36:41;;;;;;;6.80;3.60;;;0.40;99.90;;;;;;8368637;28;20296;-78
2023/04/04 02:40:44;;;;;;;6.03;2.97;;;0.40;99.90;;;;;;8378145;28;20206;-78
2023/04/04 02:44:45;;;;;;;4.23;2.80;;;0.40;99.90;;;;;;8411279;28;20186;-79
2023/04/04 02:48:50;;;;;;;7.83;2.90;;;0.40;99.90;;;;;;8389863;28;20217;-79
2023/04/04 02:52:53;;;;;;;5.50;3.00;;;0.30;99.90;;;;;;8395658;28;20197;-77
2023/04/04 02:56:54;;;;;;;8.37;3.30;;;0.20;99.90;;;;;;8397745;28;20198;-78
2023/04/04 03:00:56;;;;;;;7.50;3.57;;;0.00;99.90;;;;;;8364807;28;20197;-78
2023/04/04 03:05:00;;;;;;;6.80;3.10;;;-0.10;99.90;;;;;;8379426;28;20177;-77
2023/04/04 03:09:07;;;;;;;5.43;3.03;;;-0.30;99.90;;;;;;8380876;28;20201;-78
2023/04/04 03:13:14;;;;;;;6.90;2.83;;;-0.40;99.90;;;;;;8361784;28;20173;-78
2023/04/04 03:17:17;;;;;;;5.87;3.30;;;-0.60;99.90;;;;;;8379622;28;20189;-78
2023/04/04 03:21:18;;;;;;;8.43;2.83;;;-0.80;99.90;;;;;;8368184;28;20195;-79
2023/04/04 03:25:19;;;;;;;9.53;4.00;;;-1.00;99.90;;;;;;8369785;28;20283;-78
2023/04/04 03:29:23;;;;;;;10.17;4.90;;;-1.10;99.90;;;;;;8359536;28;20205;-78
2023/04/04 03:33:24;;;;;;;9.03;3.97;;;-1.20;99.90;;;;;;8373301;28;20299;-78
2023/04/04 03:37:29;;;;;;;5.83;3.73;;;-1.20;99.90;;;;;;8356838;28;20186;-78
2023/04/04 03:41:30;;;;;;;6.27;4.10;;;-1.20;99.90;;;;;;8359999;28;20183;-78
2023/04/04 03:45:36;;;;;;;6.40;4.00;;;-1.40;99.90;;;;;;8359672;28;20233;-77
2023/04/04 03:49:37;;;;;;;9.03;4.90;;;-1.40;99.90;;;;;;8368230;28;20212;-78
2023/04/04 03:53:38;;;;;;;8.23;5.30;;;-1.40;99.90;;;;;;8379522;28;20260;-77
2023/04/04 03:57:39;;;;;;;10.30;6.50;;;-1.50;99.90;;;;;;8377922;28;20214;-78
2023/04/04 04:01:43;;;;;;;12.73;6.60;;;-1.60;99.90;;;;;;8383494;28;20178;-77
2023/04/04 04:05:46;;;;;;;9.07;4.83;;;-1.70;99.90;;;;;;8357541;28;20197;-78
2023/04/04 04:09:47;;;;;;;8.67;4.70;;;-1.60;99.90;;;;;;8369296;28;20290;-78
2023/04/04 04:13:48;;;;;;;8.27;4.03;;;-1.60;99.90;;;;;;8364596;28;20252;-78
2023/04/04 04:17:49;;;;;;;6.10;3.73;;;-1.60;99.90;;;;;;8360668;28;20195;-79
2023/04/04 04:22:12;;;;;;;4.50;3.13;;;-1.60;99.90;;;;;;8353756;28;20187;-79
2023/04/04 04:26:13;;;;;;;4.97;3.10;;;-1.60;99.90;;;;;;8354974;28;20192;-79
2023/04/04 04:30:20;;;;;;;7.07;3.63;;;-1.60;99.90;;;;;;8386925;28;20190;-78
2023/04/04 04:34:45;;;;;;;6.17;3.30;;;-1.60;99.90;;;;;;8363790;28;20190;-80
2023/04/04 04:38:47;;;;;;;4.47;2.43;;;-1.60;99.90;;;;;;8342848;28;20202;-79
2023/04/04 04:42:49;;;;;;;4.83;3.20;;;-1.60;99.90;;;;;;8365146;28;20183;-78
2023/04/04 04:46:52;;;;;;;5.20;2.43;;;-1.60;99.90;;;;;;8366576;28;20190;-79
2023/04/04 04:50:53;;;;;;;5.13;3.40;;;-1.70;99.90;;;;;;8360572;28;20209;-77
2023/04/04 04:55:10;;;;;;;3.90;2.40;;;-1.70;99.90;;;;;;8353877;28;20199;-78
2023/04/04 04:59:16;;;;;;;6.70;4.40;;;-1.80;99.90;;;;;;8357657;28;20228;-77
2023/04/04 05:04:19;;;;;;;14.83;7.33;;;-1.80;99.90;;;;;;8363735;28;20220;-78
2023/04/04 05:12:49;;;;;;;6.87;3.97;;;-1.80;99.90;;;;;;8178571;28;20210;-77
2023/04/04 05:16:51;;;;;;;4.00;2.23;;;-1.80;99.90;;;;;;8202077;28;20208;-77
2023/04/04 05:21:20;;;;;;;;;;;;;;;;;;;;;
2023/04/04 05:25:22;;;;;;;4.13;2.57;;;-1.70;99.90;;;;;;8209198;28;20203;-78
2023/04/04 05:29:32;;;;;;;4.47;2.40;;;-1.80;99.90;;;;;;8217116;28;20234;-78
2023/04/04 05:33:39;;;;;;;5.80;2.83;;;-1.80;99.90;;;;;;8217332;28;20208;-78
2023/04/04 05:37:49;;;;;;;6.93;2.33;;;-1.80;99.90;;;;;;8202698;28;20314;-78
2023/04/04 05:41:56;;;;;;;4.27;2.47;;;-1.70;99.90;;;;;;8314438;28;20226;-79
2023/04/04 05:46:04;;;;;;;5.90;2.83;;;-1.70;99.90;;;;;;8384156;28;20185;-79
2023/04/04 05:50:24;;;;;;;9.13;3.90;;;-1.50;99.90;;;;;;8337508;28;20242;-79
2023/04/04 05:54:25;;;;;;;5.77;3.17;;;-1.30;99.90;;;;;;8379493;28;20299;-76
2023/04/04 05:58:27;;;;;;;8.20;3.57;;;-1.10;99.90;;;;;;8393205;22;20218;-75
2023/04/04 06:02:28;;;;;;;7.93;3.60;;;-0.80;99.90;;;;;;8360836;28;20188;-77
2023/04/04 06:06:31;;;;;;;7.37;3.23;;;-0.60;99.90;;;;;;8356341;28;20188;-75
2023/04/04 06:10:32;;;;;;;10.30;3.47;;;-0.40;98.60;;;;;;8342085;28;20270;-74
2023/04/04 06:14:37;;;;;;;10.47;3.83;;;-0.20;95.20;;;;;;8342382;28;20196;-76
2023/04/04 06:18:38;;;;;;;6.30;3.00;;;-0.10;83.40;;;;;;8340229;28;20191;-75
2023/04/04 06:22:40;;;;;;;9.13;4.57;;;0.10;53.00;;;;;;8319635;28;20232;-77
2023/04/04 06:26:42;;;;;;;5.67;3.17;;;0.20;65.00;;;;;;8336082;28;20205;-76
2023/04/04 06:30:52;;;;;;;8.90;3.70;;;0.30;35.80;;;;;;8343503;28;20279;-77
2023/04/04 06:34:56;;;;;;;8.00;4.00;;;0.40;25.90;;;;;;8325650;28;20196;-76
2023/04/04 06:38:57;;;;;;;9.07;3.73;;;0.50;20.50;;;;;;8335395;28;20186;-75
2023/04/04 06:42:58;;;;;;;7.47;3.37;;;0.80;11.60;;;;;;8341539;28;20194;-75
2023/04/04 06:47:00;;;;;;;7.30;4.07;;;0.80;7.20;;;;;;8331098;28;20190;-75
2023/04/04 06:51:03;;;;;;;8.17;3.97;;;0.90;5.20;;;;;;8329090;28;20218;-75
2023/04/04 06:55:06;;;;;;;8.60;3.93;;;1.00;1.00;;;;;;8327972;28;20189;-75
2023/04/04 06:59:10;;;;;;;6.80;2.97;;;1.30;1.00;;;;;;8294950;28;20203;-75
2023/04/04 07:03:11;;;;;;;9.67;5.00;;;1.30;1.00;;;;;;8290255;28;20201;-76
2023/04/04 07:07:12;;;;;;;6.67;4.00;;;1.50;1.00;;;;;;8295715;28;20198;-76
2023/04/04 07:11:13;;;;;;;8.43;3.77;;;1.90;1.00;;;;;;8309208;28;20215;-76
2023/04/04 07:15:14;;;;;;;10.80;4.93;;;2.30;1.00;;;;;;8268659;28;20330;-76
2023/04/04 07:19:16;;;;;;;6.83;3.90;;;2.60;1.00;;;;;;8291790;28;20188;-76
2023/04/04 07:23:20;;;;;;;6.40;2.97;;;2.80;1.00;;;;;;8291156;28;20202;-77
2023/04/04 07:27:21;;;;;;;5.73;2.90;;;2.90;1.00;;;;;;8291099;28;20198;-75
2023/04/04 07:31:22;;;;;;;3.60;2.30;;;3.20;1.00;;;;;;8294347;28;20245;-77
2023/04/04 07:35:23;;;;;;;7.43;3.40;;;3.30;1.00;;;;;;8292731;28;20191;-76
2023/04/04 07:39:30;;;;;;;4.57;1.73;;;3.30;1.00;;;;;;8257389;28;20312;-75
2023/04/04 07:43:32;;;;;;;3.03;1.83;;;3.20;1.00;;;;;;8284931;28;20186;-75
2023/04/04 07:47:34;;;;;;;5.90;3.70;;;2.90;1.00;;;;;;8287660;28;20188;-75
2023/04/04 07:51:44;;;;;;;4.53;3.30;;;3.00;1.00;;;;;;8288216;28;20212;-75
2023/04/04 07:55:46;;;;;;;7.07;4.77;;;3.20;1.00;;;;;;8289195;28;20249;-75
2023/04/04 07:59:47;;;;;;;8.67;4.37;;;3.30;1.00;;;;;;8286307;28;20200;-78
2023/04/04 08:03:51;;;;;;;5.60;3.23;;;3.20;1.00;;;;;;8292569;28;20189;-77
2023/04/04 08:08:01;;;;;;;21.90;12.50;;;3.30;1.00;;;;;;8294462;28;20211;-79
2023/04/04 08:12:04;;;;;;;4.03;2.40;;;3.40;1.00;;;;;;8294013;28;20214;-78
2023/04/04 08:16:11;;;;;;;2.27;1.63;;;3.00;1.00;;;;;;8312705;28;20178;-79
2023/04/04 08:20:13;;;;;;;3.20;1.40;;;3.00;1.00;;;;;;8298457;28;20296;-78
2023/04/04 08:24:14;;;;;;;6.63;3.10;;;3.20;1.00;;;;;;8311966;28;20194;-80
2023/04/04 08:28:15;;;;;;;6.70;2.87;;;3.50;1.00;;;;;;8333066;28;20332;-82
2023/04/04 08:32:19;;;;;;;4.93;2.70;;;3.80;1.00;;;;;;8341081;28;20212;-79
2023/04/04 08:36:22;;;;;;;5.87;2.10;;;4.10;1.00;;;;;;8330295;28;20260;-77
2023/04/04 08:40:30;;;;;;;10.70;5.33;;;3.90;1.00;;;;;;8311370;28;20179;-79
2023/04/04 08:44:35;;;;;;;7.30;3.23;;;4.10;1.00;;;;;;8306201;28;20195;-78
2023/04/04 08:48:40;;;;;;;7.07;3.83;;;4.20;1.00;;;;;;8299796;28;20196;-78
2023/04/04 08:52:42;;;;;;;7.93;3.80;;;4.30;1.00;;;;;;8330141;28;20171;-78
2023/04/04 08:56:47;;;;;;;7.73;3.93;;;4.30;1.00;;;;;;8336605;28;20226;-77
2023/04/04 09:00:48;;;;;;;12.67;6.87;;;4.30;1.00;;;;;;8324273;28;20221;-77
2023/04/04 09:04:50;;;;;;;7.73;3.47;;;4.70;1.00;;;;;;8326294;28;20258;-77
2023/04/04 09:08:56;;;;;;;8.17;4.17;;;4.90;1.00;;;;;;8313903;28;20223;-78
2023/04/04 09:13:01;;;;;;;8.43;4.03;;;4.90;1.00;;;;;;8307090;28;20182;-77
2023/04/04 09:17:07;;;;;;;3.73;1.93;;;5.10;1.00;;;;;;8288536;28;20187;-78
2023/04/04 09:21:12;;;;;;;4.67;2.17;;;5.30;1.00;;;;;;8282032;28;20191;-78
2023/04/04 09:25:13;;;;;;;2.07;1.17;;;5.50;1.00;;;;;;8288751;28;20191;-79
2023/04/04 09:29:26;;;;;;;1.10;0.80;;;5.00;1.00;;;;;;8294952;28;20231;-78
2023/04/04 09:33:27;;;;;;;3.27;1.37;;;4.20;1.00;;;;;;8290470;28;20191;-79
2023/04/04 09:37:31;;;;;;;2.30;1.03;;;3.80;1.00;;;;;;8286644;28;20248;-79
2023/04/04 09:41:32;;;;;;;2.80;1.60;;;2.90;1.00;;;;;;8285788;28;20197;-78
2023/04/04 09:45:36;;;;;;;1.10;0.93;;;3.00;1.00;;;;;;8287425;28;20182;-76
2023/04/04 09:49:40;;;;;;;3.00;1.70;;;3.20;1.00;;;;;;8288651;28;20211;-79
2023/04/04 09:53:41;;;;;;;3.03;2.50;;;3.80;1.00;;;;;;8288847;28;20190;-79
2023/04/04 09:57:43;;;;;;;2.20;1.40;;;4.30;1.00;;;;;;8285721;28;20220;-78
2023/04/04 10:01:45;;;;;;;4.30;2.53;;;4.50;1.00;;;;;;8277581;28;20302;-79
2023/04/04 10:05:49;;;;;;;4.67;1.30;;;4.10;1.00;;;;;;8262050;28;20201;-78
2023/04/04 10:09:51;;;;;;;4.83;2.97;;;3.90;1.00;;;;;;8281275;28;20237;-78
2023/04/04 10:13:52;;;;;;;5.40;1.60;;;4.50;1.00;;;;;;8277100;28;20195;-78
2023/04/04 10:17:54;;;;;;;3.40;1.40;;;5.00;1.00;;;;;;8283194;28;20191;-79
2023/04/04 10:21:56;;;;;;;2.23;1.10;;;4.50;1.00;;;;;;8297514;28;20190;-78
2023/04/04 10:25:58;;;;;;;2.27;1.60;;;4.00;1.00;;;;;;8286448;28;20185;-78
2023/04/04 10:30:00;;;;;;;2.10;1.57;;;3.30;1.00;;;;;;8288192;28;20222;-79
2023/04/04 10:34:20;;;;;;;4.60;2.30;;;3.30;1.00;;;;;;8277398;28;20272;-80
2023/04/04 10:38:27;;;;;;;2.67;1.27;;;3.70;1.00;;;;;;8275246;28;20200;-77
2023/04/04 10:42:39;;;;;;;2.93;1.40;;;3.50;1.00;;;;;;8272764;28;20204;-78
2023/04/04 10:46:49;;;;;;;10.90;5.80;;;3.60;1.00;;;;;;8284206;28;20196;-78
2023/04/04 10:50:54;;;;;;;1.70;1.30;;;3.90;1.00;;;;;;8285611;28;20225;-77
2023/04/04 10:55:16;;;;;;;5.67;3.40;;;3.60;1.00;;;;;;8281570;28;20233;-76
2023/04/04 10:59:26;;;;;;;9.70;5.07;;;4.10;1.00;;;;;;8280272;28;20212;-77
2023/04/04 11:03:32;;;;;;;6.67;3.70;;;4.90;1.00;;;;;;8281409;28;20305;-77
2023/04/04 11:07:39;;;;;;;3.50;1.40;;;5.30;1.00;;;;;;8287946;28;20182;-76
2023/04/04 11:12:19;;;;;;;5.33;3.63;;;5.10;1.00;;;;;;8313487;28;20221;-78
2023/04/04 11:16:20;;;;;;;1.93;1.47;;;5.20;1.00;;;;;;8327813;28;20195;-77
2023/04/04 11:20:27;;;;;;;4.00;1.97;;;5.00;1.00;;;;;;8326311;28;20231;-77
2023/04/04 11:24:28;;;;;;;9.43;3.30;;;5.30;1.00;;;;;;8324280;28;20242;-77
2023/04/04 11:28:35;;;;;;;6.77;3.40;;;5.10;1.00;;;;;;8320164;28;20218;-76
2023/04/04 11:32:45;;;;;;;4.93;1.90;;;5.70;1.00;;;;;;8269060;28;20208;-75
2023/04/04 11:36:56;;;;;;;1.80;1.30;;;5.80;1.00;;;;;;8297270;28;20249;-75
2023/04/04 11:40:59;;;;;;;2.43;1.70;;;4.60;1.00;;;;;;8287538;28;20192;-76
2023/04/04 11:45:03;;;;;;;1.60;0.90;;;3.90;1.00;;;;;;8289615;28;20193;-75
2023/04/04 11:49:05;;;;;;;1.70;1.13;;;4.10;1.00;;;;;;8287900;28;20215;-76
2023/04/04 11:53:19;;;;;;;6.03;3.90;;;4.30;1.00;;;;;;8301737;28;20267;-74
2023/04/04 11:57:20;;;;;;;4.53;2.63;;;4.60;1.00;;;;;;8321482;28;20210;-74
2023/04/04 12:01:21;;;;;;;2.87;1.73;;;4.90;1.00;;;;;;8340042;28;20198;-74
2023/04/04 12:05:23;;;;;;;3.33;1.20;;;4.70;1.00;;;;;;8311776;28;20192;-74
2023/04/04 12:09:28;;;;;;;2.80;1.70;;;4.50;1.00;;;;;;8328237;28;20210;-74
2023/04/04 12:13:30;;;;;;;1.77;1.10;;;4.80;1.00;;;;;;8310911;28;20222;-76
2023/04/04 12:17:33;;;;;;;3.83;2.40;;;4.90;1.00;;;;;;8293850;28;20198;-76
2023/04/04 12:21:34;;;;;;;3.67;2.10;;;5.20;1.00;;;;;;8293331;28;20199;-75
2023/04/04 12:25:38;;;;;;;11.33;3.83;;;5.10;1.00;;;;;;8286231;28;20296;-78
2023/04/04 12:29:40;;;;;;;2.80;1.47;;;5.30;1.00;;;;;;8297249;28;20225;-78
2023/04/04 12:33:44;;;;;;;2.80;1.47;;;5.20;1.00;;;;;;8295247;28;20190;-78
2023/04/04 12:38:09;;;;;;;5.40;1.43;;;5.30;1.00;;;;;;8290587;28;20238;-79
2023/04/04 12:42:11;;;;;;;9.73;4.13;;;5.30;1.00;;;;;;8307107;28;20258;-78
2023/04/04 12:46:12;;;;;;;9.10;4.53;;;5.80;1.00;;;;;;8296726;28;20295;-78
2023/04/04 12:50:26;;;;;;;6.53;3.20;;;6.00;1.00;;;;;;8292700;28;20223;-78
2023/04/04 12:54:29;;;;;;;8.60;4.27;;;6.00;1.00;;;;;;8291837;28;20277;-77
2023/04/04 12:58:31;;;;;;;6.20;3.30;;;6.20;1.00;;;;;;8283493;28;20238;-77
2023/04/04 13:02:35;;;;;;;6.00;3.03;;;6.20;1.00;;;;;;8300127;28;20224;-76
2023/04/04 13:06:36;;;;;;;8.03;3.40;;;6.00;1.00;;;;;;8282224;28;20190;-77
2023/04/04 13:10:56;;;;;;;3.37;1.80;;;6.20;1.00;;;;;;8294443;28;20233;-76
2023/04/04 13:15:10;;;;;;;6.00;2.07;;;5.80;1.00;;;;;;8282376;28;20198;-76
2023/04/04 13:19:11;;;;;;;4.37;2.07;;;5.70;1.00;;;;;;8306423;28;20288;-77
2023/04/04 13:23:15;;;;;;;6.40;2.40;;;5.90;1.00;;;;;;8308005;28;20186;-77
2023/04/04 13:27:27;;;;;;;3.00;1.60;;;6.50;1.00;;;;;;8302554;28;20291;-77
2023/04/04 13:31:28;;;;;;;3.30;1.50;;;6.70;1.00;;;;;;8305629;28;20202;-78
2023/04/04 13:35:33;;;;;;;2.60;1.57;;;5.50;1.00;;;;;;8296195;28;20183;-77
2023/04/04 13:39:34;;;;;;;1.50;0.93;;;5.50;1.00;;;;;;8277857;28;20226;-78
2023/04/04 13:43:35;;;;;;;10.53;5.93;;;5.70;1.00;;;;;;8291678;28;20186;-77
2023/04/04 13:47:36;;;;;;;7.00;3.47;;;5.80;1.00;;;;;;8284802;28;20325;-77
2023/04/04 13:51:37;;;;;;;14.13;8.03;;;5.90;1.00;;;;;;8286014;28;20281;-77
2023/04/04 13:55:42;;;;;;;8.73;3.60;;;6.00;1.00;;;;;;8279299;28;20325;-78
2023/04/04 13:59:43;;;;;;;5.40;3.43;;;6.10;1.00;;;;;;8277498;28;20234;-79
2023/04/04 14:03:46;;;;;;;3.73;2.27;;;6.30;1.00;;;;;;8281958;28;20191;-78
2023/04/04 14:07:47;;;;;;;2.80;1.47;;;6.30;1.00;;;;;;8288198;28;20190;-77
2023/04/04 14:11:48;;;;;;;2.77;1.30;;;5.60;1.00;;;;;;8314169;28;20222;-79
2023/04/04 14:15:49;;;;;;;4.53;2.30;;;5.20;1.00;;;;;;8323777;28;20278;-79
2023/04/04 14:19:50;;;;;;;3.20;2.00;;;5.40;1.00;;;;;;8325263;28;20210;-78
2023/04/04 14:23:57;;;;;;;4.37;2.53;;;5.50;1.00;;;;;;8337153;28;20201;-77
2023/04/04 14:27:58;;;;;;;7.07;3.20;;;5.50;1.00;;;;;;8301564;28;20183;-77
2023/04/04 14:31:59;;;;;;;4.03;2.70;;;5.50;1.00;;;;;;8294865;28;20217;-78
2023/04/04 14:36:01;;;;;;;6.50;4.23;;;5.60;1.00;;;;;;8293783;28;20217;-76
2023/04/04 14:40:06;;;;;;;4.40;2.50;;;5.70;1.00;;;;;;8287623;28;20198;-78
2023/04/04 14:44:07;;;;;;;4.60;1.77;;;6.00;1.00;;;;;;8294043;28;20193;-76
2023/04/04 14:48:08;;;;;;;3.87;1.67;;;5.60;1.00;;;;;;8288671;28;20201;-76
2023/04/04 14:52:09;;;;;;;6.30;3.90;;;5.00;1.00;;;;;;8294524;28;20274;-77
2023/04/04 14:56:56;;;;;;;10.70;5.67;;;5.00;1.00;;;;;;8294979;28;20217;-78
2023/04/04 15:01:00;;;;;;;23.20;10.47;;;5.40;1.00;;;;;;8302094;28;20194;-77
2023/04/04 15:05:02;;;;;;;8.93;5.17;;;5.70;1.00;;;;;;8292843;28;20282;-77
2023/04/04 15:09:04;;;;;;;2.43;1.30;;;5.90;1.00;;;;;;8336294;28;20187;-75
2023/04/04 15:13:05;;;;;;;5.40;2.20;;;5.60;1.00;;;;;;8326615;28;20181;-77
2023/04/04 15:17:06;;;;;;;6.90;2.77;;;5.60;1.00;;;;;;8329089;28;20186;-77
2023/04/04 15:21:13;;;;;;;6.30;1.73;;;6.00;1.00;;;;;;8304443;28;20205;-76
2023/04/04 15:25:44;;;;;;;7.30;3.58;;;6.30;1.00;;;;;;8301743;28;20461;-75
2023/04/04 15:29:45;;;;;;;3.80;1.53;;;6.00;1.00;;;;;;8211669;28;20218;-77
2023/04/04 15:33:48;;;;;;;5.63;2.10;;;5.90;1.00;;;;;;8293446;28;20256;-80
2023/04/04 15:37:52;;;;;;;4.70;1.60;;;5.50;1.00;;;;;;8295909;28;20237;-79
2023/04/04 15:41:56;;;;;;;3.80;1.67;;;5.40;1.00;;;;;;8283070;28;20178;-80
2023/04/04 15:45:57;;;;;;;14.03;6.47;;;5.50;1.00;;;;;;8289520;28;20191;-80
2023/04/04 15:50:01;;;;;;;26.63;12.53;;;5.70;1.00;;;;;;8286708;28;20206;-80
2023/04/04 15:54:02;;;;;;;32.77;16.90;;;5.80;1.00;;;;;;8285538;28;20181;-81
2023/04/04 15:58:12;;;;;;;11.50;5.27;;;5.80;1.00;;;;;;8283504;28;20228;-80
2023/04/04 16:02:16;;;;;;;51.90;20.87;;;5.90;1.00;;;;;;8274796;28;20183;-80
2023/04/04 16:06:21;;;;;;;11.77;7.17;;;5.90;1.00;;;;;;8265068;28;20226;-77
2023/04/04 16:10:37;;;;;;;19.63;8.20;;;5.70;1.00;;;;;;8275182;28;20203;-78
2023/04/04 16:14:43;;;;;;;28.20;13.67;;;5.60;1.00;;;;;;8269326;28;20219;-76
2023/04/04 16:18:45;;;;;;;14.80;8.53;;;5.50;1.00;;;;;;8276284;28;20293;-74
2023/04/04 16:22:46;;;;;;;11.40;6.00;;;5.40;1.00;;;;;;8292424;28;20217;-75
2023/04/04 16:26:50;;;;;;;8.53;4.80;;;5.40;1.00;;;;;;8256353;28;20221;-73
2023/04/04 16:30:51;;;;;;;6.70;3.50;;;5.30;1.00;;;;;;8278275;28;20315;-73
2023/04/04 16:34:55;;;;;;;30.23;10.53;;;5.30;1.00;;;;;;8291917;28;20226;-76
2023/04/04 16:38:58;;;;;;;21.03;8.93;;;5.10;1.00;;;;;;8290204;28;20196;-77
2023/04/04 16:42:59;;;;;;;94.90;26.70;;;5.10;1.00;;;;;;8294051;28;20193;-76
2023/04/04 16:47:03;;;;;;;277.43;141.73;;;5.00;1.00;;;;;;8288985;28;20206;-76
2023/04/04 16:51:04;;;;;;;173.53;60.73;;;4.90;1.00;;;;;;8301614;28;20202;-75
2023/04/04 16:55:07;;;;;;;52.93;20.27;;;4.80;1.00;;;;;;8288421;28;20183;-75
2023/04/04 16:59:08;;;;;;;25.67;9.70;;;4.70;1.00;;;;;;8288995;28;20198;-76
2023/04/04 17:03:09;;;;;;;5.87;2.73;;;4.60;1.00;;;;;;8290399;28;20183;-75
2023/04/04 17:07:10;;;;;;;4.50;2.53;;;4.50;1.00;;;;;;8304119;28;20204;-76
2023/04/04 17:11:12;;;;;;;3.10;1.90;;;4.40;1.00;;;;;;8307971;28;20230;-75
2023/04/04 17:15:15;;;;;;;3.40;1.60;;;4.20;1.00;;;;;;8306904;28;20207;-74
2023/04/04 17:19:19;;;;;;;2.40;1.43;;;4.00;1.00;;;;;;8298340;28;20203;-75
2023/04/04 17:23:20;;;;;;;4.97;1.80;;;3.80;1.00;;;;;;8325884;28;20237;-75
2023/04/04 17:27:22;;;;;;;3.30;1.70;;;3.50;1.00;;;;;;8338935;28;20228;-76
2023/04/04 17:31:22;;;;;;;3.10;1.60;;;3.40;1.00;;;;;;8337231;28;20290;-74
2023/04/04 17:35:27;;;;;;;2.80;1.77;;;3.30;1.00;;;;;;8305286;28;20199;-76
2023/04/04 17:39:28;;;;;;;2.80;1.87;;;3.10;1.00;;;;;;8300453;28;20187;-77
2023/04/04 17:43:30;;;;;;;2.80;1.60;;;3.00;1.00;;;;;;8311810;28;20197;-76
2023/04/04 17:47:31;;;;;;;2.60;1.40;;;2.80;1.00;;;;;;8295315;28;20197;-75
2023/04/04 17:51:33;;;;;;;1.93;1.27;;;2.70;1.00;;;;;;8285628;28;20240;-78
2023/04/04 17:55:34;;;;;;;5.20;1.37;;;2.40;1.00;;;;;;8282028;28;20211;-77
2023/04/04 17:59:37;;;;;;;2.60;1.50;;;2.20;1.00;;;;;;8289190;28;20207;-76
2023/04/04 18:03:49;;;;;;;2.50;1.50;;;1.90;1.00;;;;;;8288642;28;20183;-76
2023/04/04 18:07:58;;;;;;;2.77;1.40;;;1.70;1.00;;;;;;8285518;28;20194;-76
2023/04/04 18:12:00;;;;;;;3.60;1.40;;;1.40;9.20;;;;;;8289810;28;20202;-77
2023/04/04 18:16:04;;;;;;;1.93;1.13;;;1.20;16.40;;;;;;8289617;28;20195;-77
2023/04/04 18:20:07;;;;;;;2.13;0.87;;;1.00;21.20;;;;;;8296742;28;20195;-76
2023/04/04 18:24:10;;;;;;;1.57;0.83;;;0.80;26.30;;;;;;8311697;28;20221;-75
2023/04/04 18:28:11;;;;;;;1.40;0.90;;;0.70;29.40;;;;;;8319623;28;20333;-76
2023/04/04 18:32:16;;;;;;;1.60;0.83;;;0.60;35.80;;;;;;8323220;28;20198;-76
2023/04/04 18:36:17;;;;;;;1.93;0.97;;;0.50;42.10;;;;;;8319225;28;20191;-75
2023/04/04 18:40:18;;;;;;;3.40;1.40;;;0.30;49.80;;;;;;8308753;28;20184;-76
2023/04/04 18:44:20;;;;;;;1.90;0.93;;;0.10;61.50;;;;;;8313250;28;20194;-77
2023/04/04 18:48:23;;;;;;;2.37;1.00;;;0.00;76.80;;;;;;8292823;28;20190;-76
2023/04/04 18:52:24;;;;;;;1.50;1.00;;;-0.20;91.60;;;;;;8285254;28;20259;-76
2023/04/04 18:56:27;;;;;;;2.10;0.90;;;-0.30;99.00;;;;;;8302880;28;20202;-75
2023/04/04 19:00:28;;;;;;;2.23;1.03;;;-0.50;99.90;;;;;;8283896;28;20214;-76
2023/04/04 19:04:34;;;;;;;1.60;0.80;;;-0.60;99.90;;;;;;8279083;28;20190;-77
2023/04/04 19:08:39;;;;;;;1.80;1.00;;;-0.70;99.90;;;;;;8283585;28;20229;-77
2023/04/04 19:12:43;;;;;;;3.70;1.50;;;-0.90;99.90;;;;;;8277597;28;20187;-77
2023/04/04 19:16:51;;;;;;;3.30;1.53;;;-0.90;99.90;;;;;;8279305;28;20185;-77
2023/04/04 19:20:55;;;;;;;2.70;1.73;;;-1.00;99.90;;;;;;8291918;28;20239;-75
2023/04/04 19:24:56;;;;;;;3.43;1.63;;;-1.10;99.90;;;;;;8304615;28;20189;-76
2023/04/04 19:29:00;;;;;;;5.13;2.40;;;-1.30;99.90;;;;;;8289699;28;20206;-76
2023/04/04 19:33:09;;;;;;;9.50;3.27;;;-1.40;99.90;;;;;;8300008;28;20299;-76
2023/04/04 19:37:13;;;;;;;11.10;4.37;;;-1.60;99.90;;;;;;8288098;28;20329;-76
2023/04/04 19:41:17;;;;;;;9.23;4.13;;;-1.70;99.90;;;;;;8286540;28;20211;-76
2023/04/04 19:46:00;;;;;;;10.73;4.63;;;-1.80;99.90;;;;;;8297405;28;20244;-77
2023/04/04 19:50:01;;;;;;;9.60;4.30;;;-1.90;99.90;;;;;;8293528;28;20294;-76
2023/04/04 19:54:09;;;;;;;9.57;4.40;;;-2.00;99.90;;;;;;8285223;28;20301;-76
2023/04/04 19:58:22;;;;;;;9.23;4.20;;;-2.10;99.90;;;;;;8284203;28;20251;-76
2023/04/04 20:02:26;;;;;;;10.90;5.00;;;-2.10;99.90;;;;;;8302081;28;20187;-77
2023/04/04 20:06:30;;;;;;;11.30;4.83;;;-2.20;99.90;;;;;;8286501;28;20192;-77
2023/04/04 20:10:41;;;;;;;10.23;4.70;;;-2.20;99.90;;;;;;8281224;28;20219;-77
2023/04/04 20:14:42;;;;;;;8.90;4.53;;;-2.30;99.90;;;;;;8278726;28;20183;-77
2023/04/04 20:18:47;;;;;;;8.10;3.87;;;-2.40;99.90;;;;;;8294994;28;20272;-78
2023/04/04 20:22:48;;;;;;;7.73;3.90;;;-2.40;99.90;;;;;;8279950;28;20187;-78
2023/04/04 20:27:04;;;;;;;8.70;3.60;;;-2.50;99.90;;;;;;8279897;28;20208;-77
2023/04/04 20:31:07;;;;;;;8.20;3.63;;;-2.50;99.90;;;;;;8280912;28;20230;-76
2023/04/04 20:35:26;;;;;;;8.53;3.87;;;-2.50;99.90;;;;;;8283182;28;20187;-77
2023/04/04 20:39:57;;;;;;;7.60;3.93;;;-2.50;99.90;;;;;;8296707;28;20267;-76
2023/04/04 20:44:01;;;;;;;7.07;3.63;;;-2.50;99.90;;;;;;8305752;28;20201;-76
2023/04/04 20:48:05;;;;;;;11.37;4.33;;;-2.40;99.90;;;;;;8297380;28;20186;-78
2023/04/04 20:52:22;;;;;;;14.00;5.73;;;-2.30;99.90;;;;;;8295853;28;20214;-77
2023/04/04 20:56:41;;;;;;;12.87;5.27;;;-2.10;99.90;;;;;;8294701;28;20211;-77
2023/04/04 21:00:45;;;;;;;12.43;5.10;;;-2.00;99.90;;;;;;8288397;28;20251;-77
2023/04/04 21:04:50;;;;;;;13.70;5.07;;;-1.90;99.90;;;;;;8280651;28;20214;-76
2023/04/04 21:08:51;;;;;;;10.23;5.10;;;-1.80;99.90;;;;;;8276549;28;20202;-76
2023/04/04 21:13:02;;;;;;;12.20;4.67;;;-1.80;99.90;;;;;;8280724;28;20245;-76
2023/04/04 21:17:06;;;;;;;14.70;5.17;;;-1.70;99.90;;;;;;8296768;28;20179;-75
2023/04/04 21:21:12;;;;;;;11.00;5.30;;;-1.70;99.90;;;;;;8279417;28;20191;-78
2023/04/04 21:25:43;;;;;;;10.83;4.83;;;-1.70;99.90;;;;;;8283133;28;20207;-77
2023/04/04 21:29:45;;;;;;;12.50;4.93;;;-1.80;99.90;;;;;;8284140;28;20249;-77
2023/04/04 21:33:48;;;;;;;10.40;5.20;;;-1.90;99.90;;;;;;8279214;28;20192;-78
2023/04/04 21:37:49;;;;;;;14.00;5.13;;;-1.90;99.90;;;;;;8276809;28;20223;-77